Time;durP1;ratioP1;P1;durP2;ratioP2;P2;SDS_P1;SDS_P2;PMS_P1;PMS_P2;Temp;Humidity;BMP_temperature;BMP_pressure;BME280_temperature;BME280_humidity;BME280_pressure;Samples;Min_cycle;Max_cycle;Signal;HPM_P1;HPM_P2
2022/06/22 00:02:16;;;;;;;64.43;22.08;;;;;;;16.64;58.50;97771.66;5057864;28;20405;-77
2022/06/22 00:04:57;;;;;;;15.25;5.53;;;;;;;16.65;58.51;97762.81;5038514;28;20060;-71
2022/06/22 00:07:52;;;;;;;15.95;5.70;;;;;;;16.67;58.62;97773.63;5095297;28;20044;-70
2022/06/22 00:10:31;;;;;;;14.52;5.43;;;;;;;16.66;58.65;97769.19;5095489;28;20050;-77
2022/06/22 00:13:00;;;;;;;14.15;5.18;;;;;;;16.61;58.69;97766.88;5076953;28;20142;-77
2022/06/22 00:15:47;;;;;;;9.07;4.57;;;;;;;16.60;58.77;97776.47;5077054;28;20138;-77
2022/06/22 00:18:24;;;;;;;15.48;5.25;;;;;;;16.58;59.12;97776.13;5094847;28;20139;-70
2022/06/22 00:20:52;;;;;;;11.32;4.47;;;;;;;16.57;59.25;97777.31;5094912;28;20458;-70
2022/06/22 00:23:42;;;;;;;10.93;4.75;;;;;;;16.59;59.20;97780.50;5095427;28;20052;-69
2022/06/22 00:26:25;;;;;;;;;;;;;;;16.47;59.63;97783.81;5079710;28;20052;-70
2022/06/22 00:29:04;;;;;;;14.55;6.70;;;;;;;16.53;59.53;97780.16;5095250;28;19934;-70
2022/06/22 00:31:40;;;;;;;14.45;6.18;;;;;;;16.58;59.25;97774.09;5094982;28;20056;-70
2022/06/22 00:34:10;;;;;;;15.25;4.38;;;;;;;16.66;59.47;97786.06;5094912;28;20056;-70
2022/06/22 00:36:54;;;;;;;11.88;4.40;;;;;;;16.61;59.68;97778.88;5095032;28;20103;-71
2022/06/22 00:39:22;;;;;;;14.80;4.60;;;;;;;16.58;60.07;97782.50;5094637;28;20087;-70
2022/06/22 00:42:18;;;;;;;14.18;5.07;;;;;;;16.58;60.09;97788.13;5094753;28;20055;-70
2022/06/22 00:44:47;;;;;;;12.63;5.28;;;;;;;16.52;60.41;97783.38;5094655;28;20257;-70
2022/06/22 00:47:36;;;;;;;9.27;4.88;;;;;;;16.47;60.56;97783.81;5094623;28;20379;-70
2022/06/22 00:50:09;;;;;;;21.77;6.05;;;;;;;16.42;61.19;97783.03;5094637;28;20051;-70
2022/06/22 00:52:47;;;;;;;11.68;6.20;;;;;;;16.46;60.94;97785.06;5076072;28;20044;-70
2022/06/22 00:55:25;;;;;;;13.90;5.53;;;;;;;16.49;61.37;97787.03;5094487;28;20074;-70
2022/06/22 00:58:18;;;;;;;17.52;6.40;;;;;;;16.48;61.17;97782.59;5094100;28;20060;-70
2022/06/22 01:00:54;;;;;;;13.30;6.22;;;;;;;16.50;61.39;97791.41;5085446;28;20067;-72
2022/06/22 01:03:53;;;;;;;16.83;6.15;;;;;;;16.45;61.62;97792.66;5094604;28;20056;-69
2022/06/22 01:06:26;;;;;;;18.33;6.63;;;;;;;16.44;61.53;97796.69;5094182;28;20455;-69
2022/06/22 01:09:03;;;;;;;26.08;6.78;;;;;;;16.41;62.15;97792.66;5094253;28;20058;-69
2022/06/22 01:14:45;;;;;;;9.95;6.22;;;;;;;16.35;62.90;97799.91;5093836;28;20051;-69
2022/06/22 01:17:18;;;;;;;13.55;5.68;;;;;;;16.33;63.25;97795.94;5093381;28;20043;-69
2022/06/22 01:19:58;;;;;;;17.83;6.13;;;;;;;16.38;63.06;97804.69;5093815;28;20422;-70
2022/06/22 01:22:43;;;;;;;11.65;5.20;;;;;;;16.40;63.09;97810.72;5093655;28;20118;-73
2022/06/22 01:25:22;;;;;;;10.60;5.40;;;;;;;16.46;63.47;97799.84;5094052;28;20039;-69
2022/06/22 01:27:51;;;;;;;12.68;5.78;;;;;;;16.46;63.63;97804.69;5075762;28;20135;-70
2022/06/22 01:30:32;;;;;;;10.55;5.15;;;;;;;16.44;63.80;97803.09;5093700;28;20052;-69
2022/06/22 01:33:05;;;;;;;12.27;5.22;;;;;;;16.42;63.92;97811.09;5093638;28;20052;-69
2022/06/22 01:35:36;;;;;;;8.77;4.90;;;;;;;16.42;63.76;97808.31;5094265;28;20039;-69
2022/06/22 01:38:18;;;;;;;7.75;5.13;;;;;;;16.39;63.92;97808.31;5093296;28;20048;-69
2022/06/22 01:40:51;;;;;;;9.77;4.93;;;;;;;16.36;63.79;97812.75;5093619;28;20050;-70
2022/06/22 01:43:34;;;;;;;9.50;5.07;;;;;;;16.36;64.45;97815.56;5072957;28;20059;-69
2022/06/22 01:46:30;;;;;;;10.93;5.20;;;;;;;16.40;63.95;97829.56;5073177;28;20045;-68
2022/06/22 01:49:04;;;;;;;13.18;4.90;;;;;;;16.36;64.37;97832.41;5072832;28;20053;-68
2022/06/22 01:51:45;;;;;;;9.55;4.45;;;;;;;16.34;64.07;97829.19;5073156;28;20044;-68
2022/06/22 01:54:26;;;;;;;9.25;4.60;;;;;;;16.37;64.11;97831.19;5073122;28;20416;-68
2022/06/22 01:57:06;;;;;;;6.75;4.05;;;;;;;16.37;64.20;97822.75;5072782;28;20056;-68
2022/06/22 01:59:39;;;;;;;;;;;;;;;16.25;64.44;97822.44;5073496;28;20057;-68
2022/06/22 02:02:31;;;;;;;10.40;3.90;;;;;;;16.22;64.24;97824.06;5072733;28;19924;-68
2022/06/22 02:05:12;;;;;;;8.15;3.80;;;;;;;16.21;63.83;97822.50;5073151;28;20056;-68
2022/06/22 02:07:52;;;;;;;10.98;4.55;;;;;;;16.25;64.00;97822.44;5092145;28;20530;-77
2022/06/22 02:10:44;;;;;;;12.20;4.07;;;;;;;16.25;63.84;97816.84;5093244;28;20051;-76
2022/06/22 02:13:51;;;;;;;8.18;4.35;;;;;;;16.27;63.44;97820.03;5092933;28;20511;-77
2022/06/22 02:16:33;;;;;;;5.40;3.13;;;;;;;16.26;63.61;97824.84;5078767;28;20052;-77
2022/06/22 02:19:00;;;;;;;5.82;3.50;;;;;;;16.26;63.28;97824.84;5093155;28;20550;-70
2022/06/22 02:21:32;;;;;;;7.05;3.30;;;;;;;16.31;63.26;97827.22;5092823;28;20470;-70
2022/06/22 02:24:06;;;;;;;5.78;3.90;;;;;;;16.37;62.80;97830.38;5092647;28;20054;-69
2022/06/22 02:26:57;;;;;;;11.65;4.10;;;;;;;16.38;62.89;97832.75;5092754;28;20568;-69
2022/06/22 02:29:38;;;;;;;5.78;3.33;;;;;;;16.38;62.74;97832.75;5092277;28;20417;-71
2022/06/22 02:32:10;;;;;;;8.68;3.40;;;;;;;16.36;62.82;97834.41;5093207;28;20044;-70
2022/06/22 02:34:39;;;;;;;5.43;3.50;;;;;;;16.36;62.80;97829.59;5092839;28;20059;-70
2022/06/22 02:37:10;;;;;;;7.13;3.67;;;;;;;16.37;62.56;97824.75;5092547;28;20087;-70
2022/06/22 02:39:43;;;;;;;11.55;3.45;;;;;;;16.36;62.73;97832.41;5092809;28;20044;-70
2022/06/22 02:44:56;;;;;;;12.57;3.80;;;;;;;16.32;62.71;97828.03;5072627;28;20048;-70
2022/06/22 02:47:43;;;;;;;7.43;3.53;;;;;;;16.36;62.23;97829.59;5072527;28;20461;-70
2022/06/22 02:50:24;;;;;;;6.07;3.53;;;;;;;16.39;62.16;97834.38;5072525;28;20454;-70
2022/06/22 02:52:55;;;;;;;5.30;3.00;;;;;;;16.40;61.97;97835.97;5071284;28;20048;-70
2022/06/22 02:55:25;;;;;;;8.57;3.45;;;;;;;16.42;61.71;97833.56;5073109;28;20040;-70
2022/06/22 02:57:52;;;;;;;5.90;3.50;;;;;;;16.40;61.75;97844.38;5071977;28;20170;-70
2022/06/22 03:00:26;;;;;;;7.80;2.90;;;;;;;16.48;61.48;97839.56;5072110;28;20048;-70
2022/06/22 03:02:58;;;;;;;4.25;3.08;;;;;;;16.51;61.48;97837.91;5071897;28;20060;-69
2022/06/22 03:05:25;;;;;;;4.68;2.88;;;;;;;16.50;61.31;97830.72;5072236;28;20091;-71
2022/06/22 03:07:57;;;;;;;8.02;3.60;;;;;;;16.47;61.44;97839.97;5071959;28;20053;-70
2022/06/22 03:10:43;;;;;;;6.95;3.20;;;;;;;16.49;61.23;97843.16;5086170;28;20072;-70
2022/06/22 03:13:20;;;;;;;6.03;3.50;;;;;;;16.53;61.13;97849.53;5092356;28;20052;-70
2022/06/22 03:15:47;;;;;;;8.05;3.78;;;;;;;16.57;61.39;97850.31;5092712;28;20055;-70
2022/06/22 03:18:18;;;;;;;6.13;2.75;;;;;;;16.69;61.00;97849.84;5091985;28;20055;-69
2022/06/22 03:20:50;;;;;;;7.00;3.05;;;;;;;16.70;60.83;97848.63;5092529;28;20054;-68
2022/06/22 03:23:25;;;;;;;11.15;3.00;;;;;;;16.76;60.37;97850.56;5092034;28;20521;-69
2022/06/22 03:26:14;;;;;;;5.93;3.30;;;;;;;16.74;60.23;97850.19;5092220;28;20048;-69
2022/06/22 03:28:49;;;;;;;6.28;3.33;;;;;;;16.76;60.33;97852.56;5092305;28;20086;-68
2022/06/22 03:31:28;;;;;;;9.30;3.75;;;;;;;16.74;60.01;97857.78;5092141;28;20044;-69
2022/06/22 03:34:02;;;;;;;6.18;3.10;;;;;;;16.75;60.31;97853.78;5092610;28;20560;-68
2022/06/22 03:36:37;;;;;;;7.10;3.38;;;;;;;16.77;60.15;97862.59;5091871;28;20048;-68
2022/06/22 03:39:09;;;;;;;9.60;3.08;;;;;;;16.76;60.10;97861.81;5092435;28;20470;-68
2022/06/22 03:41:42;;;;;;;6.38;3.00;;;;;;;16.77;59.60;97871.00;5095788;28;20056;-68
2022/06/22 03:44:20;;;;;;;4.85;3.25;;;;;;;16.78;59.74;97864.19;5096733;28;20054;-69
2022/06/22 03:46:59;;;;;;;5.20;3.20;;;;;;;16.87;59.39;97875.75;5095767;28;20051;-68
2022/06/22 03:49:39;;;;;;;7.57;3.17;;;;;;;16.91;59.11;97874.50;5095683;28;20052;-70
2022/06/22 03:52:31;;;;;;;5.22;3.20;;;;;;;16.84;59.35;97877.34;5095941;28;20083;-68
2022/06/22 03:55:04;;;;;;;7.00;3.30;;;;;;;16.90;59.22;97880.53;5095810;28;20043;-71
2022/06/22 03:57:37;;;;;;;13.90;3.40;;;;;;;16.83;59.01;97887.00;5095357;28;20052;-70
2022/06/22 04:00:09;;;;;;;9.80;3.15;;;;;;;16.84;59.20;97882.19;5095377;28;20048;-71
2022/06/22 04:02:36;;;;;;;7.70;2.83;;;;;;;16.82;59.21;97884.63;5095415;28;20415;-70
2022/06/22 04:05:05;;;;;;;9.65;3.47;;;;;;;16.79;59.21;97885.44;5095687;28;20051;-72
2022/06/22 04:07:36;;;;;;;8.60;3.15;;;;;;;16.82;59.00;97873.38;5094987;28;20056;-71
2022/06/22 04:10:07;;;;;;;6.32;3.15;;;;;;;16.82;58.95;97881.81;5095025;28;20056;-71
2022/06/22 04:12:45;;;;;;;10.57;3.35;;;;;;;16.87;58.68;97878.56;5095369;28;20136;-68
2022/06/22 04:15:24;;;;;;;4.80;3.60;;;;;;;16.90;58.55;97883.34;5095303;28;20150;-68
2022/06/22 04:18:23;;;;;;;5.53;3.10;;;;;;;16.99;58.50;97878.84;5095009;28;20058;-69
2022/06/22 04:21:06;;;;;;;11.15;3.03;;;;;;;16.98;58.41;97896.09;5089144;28;20143;-72
2022/06/22 04:23:42;;;;;;;10.35;4.72;;;;;;;16.97;58.41;97888.91;5095149;28;20063;-71
2022/06/22 04:26:22;;;;;;;7.82;3.47;;;;;;;16.98;58.12;97896.09;5094697;28;20089;-71
2022/06/22 04:28:56;;;;;;;7.72;3.22;;;;;;;16.96;58.67;97901.34;5095075;28;20442;-70
2022/06/22 04:31:29;;;;;;;4.03;2.88;;;;;;;16.96;58.33;97899.31;5095224;28;20058;-72
2022/06/22 04:34:07;;;;;;;5.38;3.38;;;;;;;17.01;58.32;97903.69;5094952;28;20517;-70
2022/06/22 04:36:52;;;;;;;5.70;3.28;;;;;;;17.08;57.77;97898.03;5094796;28;20048;-70
2022/06/22 04:39:26;;;;;;;4.72;3.13;;;;;;;17.20;57.95;97905.94;5095175;28;20048;-71
2022/06/22 04:41:53;;;;;;;5.75;3.08;;;;;;;17.30;57.35;97916.28;5076869;28;20135;-70
2022/06/22 04:44:28;;;;;;;5.95;3.47;;;;;;;17.36;57.26;97923.06;5094908;28;20066;-77
2022/06/22 04:47:18;;;;;;;4.97;2.72;;;;;;;17.36;57.12;97920.25;5094587;28;20059;-77
2022/06/22 04:49:56;;;;;;;6.15;3.22;;;;;;;17.43;57.13;97914.53;5074806;28;20131;-78
2022/06/22 04:52:59;;;;;;;5.32;3.28;;;;;;;17.53;57.25;97924.94;5073743;28;20056;-78
2022/06/22 04:55:29;;;;;;;5.47;3.50;;;;;;;17.64;56.95;97914.34;5019799;28;20140;-78
2022/06/22 04:58:01;;;;;;;5.22;3.22;;;;;;;17.80;56.57;97915.34;5032083;28;20580;-78
2022/06/22 05:00:34;;;;;;;9.32;3.28;;;;;;;17.70;56.88;97926.72;5015847;28;20440;-77
2022/06/22 05:03:07;;;;;;;6.82;3.70;;;;;;;17.62;57.27;97919.59;5031859;28;20516;-79
2022/06/22 05:05:35;;;;;;;8.00;3.50;;;;;;;17.56;57.10;97926.91;5031902;28;20132;-77
2022/06/22 05:08:15;;;;;;;5.95;3.60;;;;;;;17.58;57.20;97932.88;5031637;28;20554;-78
2022/06/22 05:10:48;;;;;;;6.97;3.35;;;;;;;17.67;56.94;97931.19;5032472;28;20091;-78
2022/06/22 05:13:20;;;;;;;6.15;3.33;;;;;;;17.82;56.87;97921.38;5031564;28;20053;-77
2022/06/22 05:15:50;;;;;;;4.82;3.08;;;;;;;17.99;56.20;97925.19;5032000;28;20052;-77
2022/06/22 05:18:24;;;;;;;10.70;3.90;;;;;;;18.16;55.81;97929.81;5031799;28;20052;-79
2022/06/22 05:21:01;;;;;;;5.43;3.67;;;;;;;18.47;55.06;97925.78;5031809;28;20053;-78
2022/06/22 05:23:31;;;;;;;4.25;2.85;;;;;;;18.64;54.80;97926.75;5031691;28;20500;-78
2022/06/22 05:26:06;;;;;;;5.32;3.35;;;;;;;18.69;54.45;97929.91;5031264;28;20512;-78
2022/06/22 05:28:44;;;;;;;6.18;3.50;;;;;;;18.69;54.42;97929.91;5039596;28;20075;-78
2022/06/22 05:31:13;;;;;;;5.68;3.35;;;;;;;18.74;54.23;97926.56;5093723;28;20525;-71
2022/06/22 05:33:49;;;;;;;7.43;3.30;;;;;;;18.83;53.84;97940.16;5093794;28;20052;-71
2022/06/22 05:36:21;;;;;;;5.95;3.63;;;;;;;18.99;53.46;97937.47;5076369;28;20043;-72
2022/06/22 05:38:52;;;;;;;4.63;3.47;;;;;;;18.94;53.57;97932.31;5093441;28;20101;-71
2022/06/22 05:41:32;;;;;;;6.80;3.10;;;;;;;18.82;53.59;97930.09;5093186;28;20127;-71
2022/06/22 05:44:06;;;;;;;5.40;3.25;;;;;;;18.72;54.33;97939.50;5093767;28;20080;-70
2022/06/22 05:46:33;;;;;;;13.80;2.83;;;;;;;18.60;54.21;97938.06;5093107;28;20052;-73
2022/06/22 05:49:08;;;;;;;8.63;3.17;;;;;;;18.52;54.30;97939.38;5093762;28;20070;-70
2022/06/22 05:52:02;;;;;;;5.57;3.05;;;;;;;18.43;54.66;97953.19;5074956;28;20058;-68
2022/06/22 05:54:56;;;;;;;6.20;3.17;;;;;;;18.37;54.85;97956.88;5093477;28;20127;-69
2022/06/22 05:57:42;;;;;;;5.13;2.90;;;;;;;18.29;54.91;97961.78;5092957;28;20055;-68
2022/06/22 06:00:20;;;;;;;5.10;3.25;;;;;;;18.28;54.63;97965.84;5093355;28;20047;-70
2022/06/22 06:02:53;;;;;;;5.20;2.83;;;;;;;18.27;54.40;97958.63;5092216;28;20127;-71
2022/06/22 06:05:35;;;;;;;9.98;3.35;;;;;;;18.33;54.28;97959.75;5092819;28;20417;-71
2022/06/22 06:08:15;;;;;;;5.60;3.10;;;;;;;18.34;53.83;97966.97;5074525;28;20058;-72
2022/06/22 06:10:43;;;;;;;;;;;;;;;18.21;54.34;97969.53;5075479;28;20109;-71
2022/06/22 06:13:16;;;;;;;15.65;3.05;;;;;;;18.31;54.19;97976.25;5093030;28;19952;-71
2022/06/22 06:15:45;;;;;;;8.18;3.10;;;;;;;18.41;54.08;97968.94;5092828;28;20142;-71
2022/06/22 06:18:20;;;;;;;5.00;3.08;;;;;;;18.61;53.71;97976.28;5092810;28;20131;-76
2022/06/22 06:20:50;;;;;;;5.20;2.90;;;;;;;18.90;53.12;97974.66;5093157;28;20379;-76
2022/06/22 06:23:24;;;;;;;;;;;;;;;18.92;52.92;97983.47;5093081;28;20052;-77
2022/06/22 06:28:50;;;;;;;4.43;2.85;;;;;;;19.23;52.14;97982.19;5092887;28;20173;-71
2022/06/22 06:31:42;;;;;;;4.65;3.28;;;;;;;19.09;51.92;97982.41;5092364;28;20410;-71
2022/06/22 06:34:15;;;;;;;7.78;3.28;;;;;;;19.02;52.08;97982.53;5091845;28;20062;-72
2022/06/22 06:36:56;;;;;;;5.35;3.28;;;;;;;19.14;51.82;97981.94;5092666;28;20417;-71
2022/06/22 06:39:28;;;;;;;5.15;2.90;;;;;;;19.29;51.42;97976.88;5092891;28;20105;-71
2022/06/22 06:42:05;;;;;;;13.63;2.78;;;;;;;19.61;50.47;97983.56;5092420;28;20388;-72
2022/06/22 06:44:37;;;;;;;7.13;3.20;;;;;;;19.82;49.22;97986.00;5092390;28;20054;-72
2022/06/22 06:47:13;;;;;;;5.43;3.30;;;;;;;19.75;49.33;97982.53;5092615;28;20056;-72
2022/06/22 06:50:04;;;;;;;7.10;2.83;;;;;;;20.26;48.37;97976.31;5092586;28;20048;-69
2022/06/22 06:52:38;;;;;;;9.23;2.90;;;;;;;21.19;46.61;97983.09;5092458;28;20054;-71
2022/06/22 06:55:24;;;;;;;6.40;2.92;;;;;;;21.66;45.24;97977.88;5092739;28;20048;-71
2022/06/22 06:57:59;;;;;;;7.90;2.90;;;;;;;21.51;45.83;97982.31;5092075;28;20044;-70
2022/06/22 07:00:29;;;;;;;7.65;2.70;;;;;;;21.51;45.76;97996.47;5092433;28;20044;-69
2022/06/22 07:02:57;;;;;;;5.40;2.90;;;;;;;21.39;45.97;97986.66;5092148;28;20131;-70
2022/06/22 07:05:28;;;;;;;5.22;2.70;;;;;;;21.22;46.40;98002.03;5092223;28;20554;-70
2022/06/22 07:07:55;;;;;;;4.15;2.67;;;;;;;21.18;46.23;97992.03;5092162;28;20091;-70
2022/06/22 07:10:21;;;;;;;6.22;3.33;;;;;;;21.05;46.50;97999.63;5092232;28;20368;-70
2022/06/22 07:12:57;;;;;;;7.25;2.55;;;;;;;21.01;46.66;97998.91;5092087;28;20090;-70
2022/06/22 07:15:35;;;;;;;4.63;2.53;;;;;;;20.85;46.66;98001.66;5094934;28;20395;-77
2022/06/22 07:18:11;;;;;;;10.23;2.55;;;;;;;20.68;46.63;98008.50;5096404;28;20040;-77
2022/06/22 07:20:45;;;;;;;9.30;3.00;;;;;;;20.43;46.78;98017.50;5096226;28;20054;-67
2022/06/22 07:23:29;;;;;;;11.35;3.83;;;;;;;20.22;47.33;98015.09;5096227;28;20075;-67
2022/06/22 07:26:02;;;;;;;4.20;2.80;;;;;;;20.24;47.39;98017.47;5096175;28;20138;-68
2022/06/22 07:28:37;;;;;;;6.28;2.88;;;;;;;20.17;47.82;98023.28;5077641;28;20055;-68
2022/06/22 07:31:13;;;;;;;11.27;2.70;;;;;;;20.12;47.55;98020.91;5095714;28;20598;-68
2022/06/22 07:33:47;;;;;;;11.48;2.78;;;;;;;20.20;47.45;98014.75;5096149;28;20540;-68
2022/06/22 07:36:28;;;;;;;4.40;2.47;;;;;;;20.38;47.16;98025.69;5096748;28;20555;-67
2022/06/22 07:39:01;;;;;;;10.00;2.55;;;;;;;20.48;46.87;98027.47;5095904;28;20048;-71
2022/06/22 07:41:29;;;;;;;7.22;2.63;;;;;;;20.53;46.82;98021.34;5095656;28;20138;-71
2022/06/22 07:44:15;;;;;;;8.32;2.35;;;;;;;20.70;46.44;98032.28;5095420;28;20050;-72
2022/06/22 07:47:08;;;;;;;5.30;2.70;;;;;;;21.37;44.83;98036.41;5095527;28;20093;-71
2022/06/22 07:49:42;;;;;;;4.07;2.40;;;;;;;23.00;41.76;98025.91;5085835;28;20055;-71
2022/06/22 07:52:13;;;;;;;11.23;2.58;;;;;;;24.74;38.78;98023.22;5095591;28;20048;-72
2022/06/22 07:55:03;;;;;;;8.90;2.25;;;;;;;26.48;35.33;98025.00;5095614;28;20044;-70
2022/06/22 07:57:49;;;;;;;2.63;1.80;;;;;;;28.32;32.16;98035.66;5095163;28;20059;-74
2022/06/22 08:00:21;;;;;;;6.45;2.40;;;;;;;28.73;31.36;98043.31;5095365;28;20052;-72
2022/06/22 08:03:25;;;;;;;3.00;2.10;;;;;;;27.24;33.16;98047.59;5095029;28;20067;-70
2022/06/22 08:05:59;;;;;;;4.38;1.90;;;;;;;25.69;35.59;98051.59;5095203;28;20052;-72
2022/06/22 08:08:31;;;;;;;5.57;2.75;;;;;;;24.70;36.98;98059.56;5095550;28;20055;-70
2022/06/22 08:11:07;;;;;;;4.45;3.00;;;;;;;24.55;37.26;98055.63;5095439;28;20074;-72
2022/06/22 08:13:42;;;;;;;8.32;3.13;;;;;;;24.80;36.77;98056.31;5094853;28;20134;-71
2022/06/22 08:16:17;;;;;;;4.75;2.38;;;;;;;24.43;36.89;98047.94;5094925;28;20052;-70
2022/06/22 08:18:48;;;;;;;4.18;2.30;;;;;;;23.72;37.93;98054.44;5094910;28;20086;-71
2022/06/22 08:21:22;;;;;;;2.75;1.95;;;;;;;23.26;38.81;98045.38;5095298;28;20044;-75
2022/06/22 08:23:50;;;;;;;3.58;2.05;;;;;;;23.30;38.70;98048.91;5095287;28;20048;-71
2022/06/22 08:26:23;;;;;;;4.10;2.22;;;;;;;23.10;39.20;98042.63;5093729;28;20506;-76
2022/06/22 08:28:54;;;;;;;10.10;4.65;;;;;;;22.93;39.16;98048.81;5094707;28;20052;-78
2022/06/22 08:31:21;;;;;;;7.80;2.80;;;;;;;22.58;39.72;98050.66;5094908;28;20411;-77
2022/06/22 08:34:07;;;;;;;8.27;2.30;;;;;;;22.33;40.23;98050.53;5094839;28;20047;-79
2022/06/22 08:36:39;;;;;;;3.83;2.10;;;;;;;22.28;40.25;98053.91;5094875;28;20048;-77
2022/06/22 08:39:16;;;;;;;2.83;1.98;;;;;;;22.30;40.09;98059.13;5094708;28;20044;-77
2022/06/22 08:41:59;;;;;;;4.85;2.35;;;;;;;22.30;39.89;98061.97;5094508;28;20071;-79
2022/06/22 08:44:36;;;;;;;2.42;1.80;;;;;;;22.21;39.96;98065.44;5088651;28;20151;-77
2022/06/22 08:47:24;;;;;;;3.47;2.10;;;;;;;22.55;39.27;98062.91;5074220;28;20072;-78
2022/06/22 08:50:10;;;;;;;11.18;2.05;;;;;;;22.96;38.54;98059.25;5074021;28;20131;-77
2022/06/22 08:52:57;;;;;;;5.47;1.88;;;;;;;23.12;37.96;98064.88;5074026;28;20045;-80
2022/06/22 08:56:07;;;;;;;4.45;1.95;;;;;;;23.26;37.86;98062.41;5073208;28;20511;-77
2022/06/22 08:59:01;;;;;;;8.48;3.33;;;;;;;23.27;37.72;98069.66;5074079;28;20500;-78
2022/06/22 09:01:43;;;;;;;3.08;1.95;;;;;;;23.29;37.07;98066.38;5074142;28;20071;-77
2022/06/22 09:04:27;;;;;;;4.97;1.48;;;;;;;23.58;36.40;98083.31;5074457;28;20052;-78
2022/06/22 09:07:06;;;;;;;3.75;1.80;;;;;;;24.83;34.19;98075.31;5055563;28;20044;-76
2022/06/22 09:09:48;;;;;;;3.42;1.90;;;;;;;29.02;27.49;98066.25;5073981;28;20076;-77
2022/06/22 09:12:26;;;;;;;5.63;3.13;;;;;;;28.85;28.04;98067.22;5076516;28;20048;-78
2022/06/22 09:15:41;;;;;;;30.98;12.00;;;;;;;27.27;30.29;98058.09;5094168;28;20052;-78
2022/06/22 09:18:34;;;;;;;7.03;2.42;;;;;;;25.83;32.21;98065.25;5023910;28;20057;-77
2022/06/22 09:21:16;;;;;;;3.88;2.15;;;;;;;25.00;33.71;98073.84;5093565;28;20105;-78
2022/06/22 09:24:20;;;;;;;4.35;2.42;;;;;;;24.49;35.00;98068.84;5093639;28;20050;-82
2022/06/22 09:27:05;;;;;;;3.30;1.55;;;;;;;23.91;36.13;98081.78;5093619;28;20044;-70
2022/06/22 09:29:43;;;;;;;6.47;2.03;;;;;;;23.44;36.67;98081.72;5094008;28;20058;-70
2022/06/22 09:32:41;;;;;;;4.75;1.75;;;;;;;23.25;37.18;98072.19;5093656;28;20503;-73
2022/06/22 09:35:42;;;;;;;8.88;2.67;;;;;;;23.39;37.08;98083.06;5093261;28;20051;-70
2022/06/22 09:38:19;;;;;;;35.63;17.13;;;;;;;23.38;36.93;98077.06;5093163;28;20075;-70
2022/06/22 09:41:10;;;;;;;8.98;4.45;;;;;;;23.67;36.49;98060.69;5093568;28;20482;-70
2022/06/22 09:44:31;;;;;;;4.38;1.90;;;;;;;24.14;36.13;98075.75;5093062;28;20039;-70
2022/06/22 09:47:07;;;;;;;3.53;1.60;;;;;;;23.93;36.76;98065.09;5093370;28;20043;-71
2022/06/22 09:49:40;;;;;;;3.95;2.03;;;;;;;23.85;36.97;98072.25;5093312;28;20557;-74
2022/06/22 09:52:16;;;;;;;3.63;1.85;;;;;;;24.06;36.32;98074.41;5093229;28;20056;-71
2022/06/22 09:57:39;;;;;;;5.38;1.92;;;;;;;23.65;37.38;98088.78;5092833;28;20056;-71
2022/06/22 10:00:16;;;;;;;3.88;2.05;;;;;;;23.30;38.26;98085.78;5093130;28;20112;-70
2022/06/22 10:03:15;;;;;;;2.58;1.92;;;;;;;23.54;37.96;98088.31;5094985;28;20051;-69
2022/06/22 10:05:43;;;;;;;2.50;1.50;;;;;;;24.03;36.89;98081.00;5064276;28;20054;-71
2022/06/22 10:08:42;;;;;;;2.58;1.60;;;;;;;24.33;36.31;98083.19;5094046;28;20564;-70
2022/06/22 10:11:22;;;;;;;3.10;1.70;;;;;;;24.42;36.17;98091.84;5059199;28;20060;-70
2022/06/22 10:14:13;;;;;;;2.35;1.60;;;;;;;24.13;36.42;98103.38;5092763;28;20060;-70
2022/06/22 10:16:45;;;;;;;6.05;1.75;;;;;;;24.12;36.43;98095.31;5092961;28;20047;-71
2022/06/22 10:19:28;;;;;;;2.03;1.40;;;;;;;24.38;36.82;98103.34;5093031;28;20040;-72
2022/06/22 10:21:57;;;;;;;1.90;1.33;;;;;;;24.49;36.11;98108.66;5092564;28;20048;-72
2022/06/22 10:24:26;;;;;;;;;;;;;;;24.42;36.35;98109.69;5093287;28;20055;-71
2022/06/22 10:27:11;;;;;;;3.65;1.50;;;;;;;24.53;35.79;98103.63;5092672;28;19924;-70
2022/06/22 10:29:57;;;;;;;3.13;1.60;;;;;;;24.33;35.63;98100.25;5092771;28;20093;-71
2022/06/22 10:32:42;;;;;;;3.70;1.80;;;;;;;24.34;35.72;98105.47;5092647;28;20134;-72
2022/06/22 10:35:29;;;;;;;5.90;1.40;;;;;;;24.18;36.18;98108.50;5073999;28;20079;-72
2022/06/22 10:38:16;;;;;;;3.03;1.40;;;;;;;23.98;36.48;98107.94;5072795;28;20089;-71
2022/06/22 10:47:25;;;;;;;3.33;1.40;;;;;;;24.32;36.38;98122.22;5072102;28;20052;-70
2022/06/22 10:50:10;;;;;;;3.35;1.50;;;;;;;24.04;36.45;98116.72;5074077;28;20044;-75
2022/06/22 10:53:07;;;;;;;3.13;1.23;;;;;;;23.64;37.41;98122.03;5076508;28;20063;-72
2022/06/22 10:55:57;;;;;;;3.50;1.67;;;;;;;23.79;36.92;98122.38;5076672;28;20048;-78
2022/06/22 10:58:33;;;;;;;;;;;;;;;23.62;37.49;98120.91;5076661;28;20079;-78
2022/06/22 11:01:25;;;;;;;5.55;1.95;;;;;;;23.58;37.97;98129.53;5057711;28;19924;-79
2022/06/22 11:04:27;;;;;;;3.92;1.48;;;;;;;23.49;37.78;98128.59;5097287;28;20087;-78
2022/06/22 11:07:44;;;;;;;2.33;1.50;;;;;;;23.02;38.94;98136.88;5096033;28;20055;-70
2022/06/22 11:10:11;;;;;;;6.85;2.00;;;;;;;22.75;39.76;98142.94;5062823;28;20507;-72
2022/06/22 11:13:00;;;;;;;4.85;2.03;;;;;;;22.42;40.61;98138.53;5096307;28;20052;-74
2022/06/22 11:15:41;;;;;;;2.17;1.50;;;;;;;22.19;40.70;98141.56;5096387;28;20054;-72
2022/06/22 11:18:20;;;;;;;3.13;1.65;;;;;;;22.14;40.81;98144.94;5094479;28;20044;-75
2022/06/22 11:21:28;;;;;;;7.80;1.65;;;;;;;22.22;40.54;98152.03;5095054;28;20135;-81
2022/06/22 11:24:13;;;;;;;3.50;1.90;;;;;;;22.40;40.54;98155.19;5091639;28;20044;-83
2022/06/22 11:33:28;;;;;;;3.95;1.38;;;;;;;22.99;39.75;98149.94;5095140;28;20510;-69
2022/06/22 11:36:26;;;;;;;3.97;1.52;;;;;;;22.87;39.71;98159.19;5033188;28;20045;-72
2022/06/22 11:39:25;;;;;;;4.55;1.30;;;;;;;23.09;38.66;98165.84;5096296;28;20134;-71
2022/06/22 11:42:04;;;;;;;3.28;1.38;;;;;;;22.91;38.89;98159.88;5083751;28;20597;-69
2022/06/22 11:48:06;;;;;;;2.25;1.20;;;;;;;22.80;39.14;98161.44;5057163;28;20380;-74
2022/06/22 11:50:53;;;;;;;3.03;1.40;;;;;;;22.63;39.78;98159.88;5075071;28;20075;-69
2022/06/22 11:53:41;;;;;;;2.55;1.10;;;;;;;22.40;40.09;98163.69;5074975;28;20051;-71
2022/06/22 11:56:25;;;;;;;4.40;1.40;;;;;;;22.35;40.54;98167.06;5074978;28;20067;-69
2022/06/22 11:59:10;;;;;;;4.57;2.10;;;;;;;22.56;40.55;98171.41;5075403;28;20055;-70
2022/06/22 12:02:03;;;;;;;6.70;1.10;;;;;;;22.53;40.56;98164.56;5077846;28;20525;-71
2022/06/22 12:04:39;;;;;;;2.17;1.20;;;;;;;22.30;40.45;98178.13;5095103;28;20048;-70
2022/06/22 12:07:24;;;;;;;2.72;1.13;;;;;;;22.26;40.00;98169.72;5095246;28;20512;-70
2022/06/22 12:10:24;;;;;;;4.07;1.10;;;;;;;22.36;39.82;98165.84;5095376;28;20054;-68
2022/06/22 12:12:58;;;;;;;1.85;1.20;;;;;;;22.25;39.77;98179.47;5095034;28;20528;-68
2022/06/22 12:15:44;;;;;;;4.53;2.10;;;;;;;21.99;39.95;98186.19;5095321;28;20054;-71
2022/06/22 12:18:23;;;;;;;6.50;2.20;;;;;;;21.85;40.32;98174.41;5094531;28;20043;-69
2022/06/22 12:21:09;;;;;;;3.75;1.50;;;;;;;21.91;40.14;98175.47;5095142;28;20406;-69
2022/06/22 12:24:07;;;;;;;4.28;1.33;;;;;;;21.99;40.21;98176.91;5094997;28;20052;-67
2022/06/22 12:27:05;;;;;;;4.80;1.38;;;;;;;21.79;40.45;98179.78;5094840;28;20067;-68
2022/06/22 12:30:05;;;;;;;2.85;1.30;;;;;;;21.79;40.30;98184.66;5094796;28;20059;-69
2022/06/22 12:33:01;;;;;;;5.68;1.40;;;;;;;22.12;40.05;98180.63;5022943;28;20089;-69
2022/06/22 12:35:31;;;;;;;3.17;1.00;;;;;;;22.44;39.61;98174.94;5095457;28;20103;-69
2022/06/22 12:38:03;;;;;;;2.05;1.30;;;;;;;22.60;39.24;98172.91;5094934;28;20052;-68
2022/06/22 12:40:42;;;;;;;1.38;0.95;;;;;;;22.73;38.77;98168.09;5094904;28;20052;-66
2022/06/22 12:43:54;;;;;;;2.97;1.20;;;;;;;22.54;38.92;98174.69;5094829;28;20058;-70
2022/06/22 12:46:32;;;;;;;2.25;0.90;;;;;;;22.31;39.03;98168.38;5054699;28;20059;-72
2022/06/22 12:49:27;;;;;;;2.22;1.05;;;;;;;22.16;39.01;98165.13;5075951;28;20052;-68
2022/06/22 12:52:32;;;;;;;2.75;1.20;;;;;;;22.10;38.96;98166.91;5094475;28;20457;-69
2022/06/22 12:55:05;;;;;;;3.97;0.98;;;;;;;22.02;39.53;98162.63;5072791;28;20062;-70
2022/06/22 12:57:51;;;;;;;2.08;1.08;;;;;;;21.98;39.16;98164.78;5093892;28;20052;-68
2022/06/22 13:00:20;;;;;;;5.97;2.58;;;;;;;22.00;37.53;98161.50;5094844;28;20063;-70
2022/06/22 13:02:51;;;;;;;16.75;5.85;;;;;;;22.02;36.95;98171.13;5094032;28;20052;-68